sensor_id;sensor_type;location;lat;lon;timestamp;temperature;humidity
1453;DHT22;720;47.738;7.998;2023-02-28T00:00:45;-1.80;91.70
1453;DHT22;720;47.738;7.998;2023-02-28T00:03:11;-2.00;91.80
1453;DHT22;720;47.738;7.998;2023-02-28T00:05:37;-1.80;91.70
1453;DHT22;720;47.738;7.998;2023-02-28T00:08:02;-1.70;91.60
1453;DHT22;720;47.738;7.998;2023-02-28T00:10:30;-1.60;91.40
1453;DHT22;720;47.738;7.998;2023-02-28T00:13:00;-1.70;91.70
1453;DHT22;720;47.738;7.998;2023-02-28T00:15:26;-1.50;91.40
1453;DHT22;720;47.738;7.998;2023-02-28T00:17:52;-1.40;91.20
1453;DHT22;720;47.738;7.998;2023-02-28T00:20:18;-1.60;91.00
1453;DHT22;720;47.738;7.998;2023-02-28T00:22:46;-1.50;91.20
1453;DHT22;720;47.738;7.998;2023-02-28T00:25:16;-1.60;91.30
1453;DHT22;720;47.738;7.998;2023-02-28T00:27:42;-1.50;91.80
1453;DHT22;720;47.738;7.998;2023-02-28T00:30:11;-1.60;91.80
1453;DHT22;720;47.738;7.998;2023-02-28T00:32:37;-1.80;92.10
1453;DHT22;720;47.738;7.998;2023-02-28T00:35:04;-1.50;92.50
1453;DHT22;720;47.738;7.998;2023-02-28T00:37:30;-1.30;92.40
1453;DHT22;720;47.738;7.998;2023-02-28T00:39:56;-1.30;92.00
1453;DHT22;720;47.738;7.998;2023-02-28T00:42:22;-1.30;91.60
1453;DHT22;720;47.738;7.998;2023-02-28T00:44:47;-1.40;91.30
1453;DHT22;720;47.738;7.998;2023-02-28T00:47:13;-1.80;91.70
1453;DHT22;720;47.738;7.998;2023-02-28T00:49:39;-1.80;92.10
1453;DHT22;720;47.738;7.998;2023-02-28T00:52:05;-1.60;92.40
1453;DHT22;720;47.738;7.998;2023-02-28T00:54:30;-1.60;92.40
1453;DHT22;720;47.738;7.998;2023-02-28T00:56:56;-1.50;92.00
1453;DHT22;720;47.738;7.998;2023-02-28T00:59:22;-1.60;92.10
1453;DHT22;720;47.738;7.998;2023-02-28T01:01:47;-1.50;92.30
1453;DHT22;720;47.738;7.998;2023-02-28T01:04:14;-1.30;92.00
1453;DHT22;720;47.738;7.998;2023-02-28T01:06:40;-1.20;91.60
1453;DHT22;720;47.738;7.998;2023-02-28T01:09:06;-1.20;91.60
1453;DHT22;720;47.738;7.998;2023-02-28T01:11:33;-1.30;91.60
1453;DHT22;720;47.738;7.998;2023-02-28T01:13:59;-1.40;92.10
1453;DHT22;720;47.738;7.998;2023-02-28T01:16:26;-1.30;91.70
1453;DHT22;720;47.738;7.998;2023-02-28T01:18:51;-1.10;91.80
1453;DHT22;720;47.738;7.998;2023-02-28T01:21:19;-1.30;91.60
1453;DHT22;720;47.738;7.998;2023-02-28T01:23:45;-1.40;92.20
1453;DHT22;720;47.738;7.998;2023-02-28T01:26:22;-1.40;91.80
1453;DHT22;720;47.738;7.998;2023-02-28T01:28:48;-1.40;91.80
1453;DHT22;720;47.738;7.998;2023-02-28T01:31:15;-1.30;91.70
1453;DHT22;720;47.738;7.998;2023-02-28T01:33:41;-1.60;91.60
1453;DHT22;720;47.738;7.998;2023-02-28T01:36:18;-1.70;92.00
1453;DHT22;720;47.738;7.998;2023-02-28T01:38:45;-1.50;92.30
1453;DHT22;720;47.738;7.998;2023-02-28T01:46:07;-1.20;91.80
1453;DHT22;720;47.738;7.998;2023-02-28T01:48:36;-1.20;91.70
1453;DHT22;720;47.738;7.998;2023-02-28T01:51:08;-1.40;91.90
1453;DHT22;720;47.738;7.998;2023-02-28T01:53:41;-1.50;92.40
1453;DHT22;720;47.738;7.998;2023-02-28T01:56:09;-1.30;92.30
1453;DHT22;720;47.738;7.998;2023-02-28T01:58:37;-1.30;91.90
1453;DHT22;720;47.738;7.998;2023-02-28T02:01:03;-1.30;91.80
1453;DHT22;720;47.738;7.998;2023-02-28T02:03:30;-1.20;92.10
1453;DHT22;720;47.738;7.998;2023-02-28T02:05:56;-1.20;92.20
1453;DHT22;720;47.738;7.998;2023-02-28T02:08:28;-1.10;92.40
1453;DHT22;720;47.738;7.998;2023-02-28T02:10:57;-1.10;92.10
1453;DHT22;720;47.738;7.998;2023-02-28T02:13:48;-1.10;91.90
1453;DHT22;720;47.738;7.998;2023-02-28T02:17:04;-1.20;92.30
1453;DHT22;720;47.738;7.998;2023-02-28T02:22:50;-1.70;92.90
1453;DHT22;720;47.738;7.998;2023-02-28T02:25:42;-1.60;93.20
1453;DHT22;720;47.738;7.998;2023-02-28T02:31:39;-1.30;92.70
1453;DHT22;720;47.738;7.998;2023-02-28T02:36:51;-1.30;92.80
1453;DHT22;720;47.738;7.998;2023-02-28T02:39:36;-1.30;93.10
1453;DHT22;720;47.738;7.998;2023-02-28T02:42:13;-1.30;93.10
1453;DHT22;720;47.738;7.998;2023-02-28T02:44:44;-1.40;92.90
1453;DHT22;720;47.738;7.998;2023-02-28T02:47:15;-1.40;93.10
1453;DHT22;720;47.738;7.998;2023-02-28T02:49:47;-1.30;93.00
1453;DHT22;720;47.738;7.998;2023-02-28T02:52:15;-1.30;92.90
1453;DHT22;720;47.738;7.998;2023-02-28T02:54:45;-1.20;93.10
1453;DHT22;720;47.738;7.998;2023-02-28T02:57:23;-1.10;93.20
1453;DHT22;720;47.738;7.998;2023-02-28T02:59:51;-1.10;93.00
1453;DHT22;720;47.738;7.998;2023-02-28T03:02:20;-1.00;93.00
1453;DHT22;720;47.738;7.998;2023-02-28T03:04:56;-0.90;92.80
1453;DHT22;720;47.738;7.998;2023-02-28T03:07:26;-0.90;92.70
1453;DHT22;720;47.738;7.998;2023-02-28T03:09:54;-0.80;92.70
1453;DHT22;720;47.738;7.998;2023-02-28T03:12:20;-0.70;92.40
1453;DHT22;720;47.738;7.998;2023-02-28T03:15:15;-0.80;92.20
1453;DHT22;720;47.738;7.998;2023-02-28T03:21:01;-0.70;92.30
1453;DHT22;720;47.738;7.998;2023-02-28T03:23:42;-0.80;92.10
1453;DHT22;720;47.738;7.998;2023-02-28T03:26:19;-0.80;92.50
1453;DHT22;720;47.738;7.998;2023-02-28T03:29:05;-0.70;92.60
1453;DHT22;720;47.738;7.998;2023-02-28T03:31:38;-0.70;92.60
1453;DHT22;720;47.738;7.998;2023-02-28T03:36:53;-1.20;93.00
1453;DHT22;720;47.738;7.998;2023-02-28T03:39:25;-1.10;93.60
1453;DHT22;720;47.738;7.998;2023-02-28T03:41:59;-1.00;93.80
1453;DHT22;720;47.738;7.998;2023-02-28T03:44:32;-0.90;93.00
1453;DHT22;720;47.738;7.998;2023-02-28T03:47:16;-1.10;92.90
1453;DHT22;720;47.738;7.998;2023-02-28T03:49:54;-1.10;93.20
1453;DHT22;720;47.738;7.998;2023-02-28T03:52:23;-1.00;93.20
1453;DHT22;720;47.738;7.998;2023-02-28T03:54:53;-1.00;93.20
1453;DHT22;720;47.738;7.998;2023-02-28T03:57:27;-1.10;93.40
1453;DHT22;720;47.738;7.998;2023-02-28T03:59:59;-1.10;93.50
1453;DHT22;720;47.738;7.998;2023-02-28T04:02:29;-1.00;93.50
1453;DHT22;720;47.738;7.998;2023-02-28T04:04:55;-1.20;93.40
1453;DHT22;720;47.738;7.998;2023-02-28T04:07:21;-1.10;93.70
1453;DHT22;720;47.738;7.998;2023-02-28T04:09:46;-1.00;93.90
1453;DHT22;720;47.738;7.998;2023-02-28T04:12:12;-0.90;93.90
1453;DHT22;720;47.738;7.998;2023-02-28T04:14:38;-0.80;93.50
1453;DHT22;720;47.738;7.998;2023-02-28T04:17:03;-0.60;93.10
1453;DHT22;720;47.738;7.998;2023-02-28T04:19:29;-0.60;92.60
1453;DHT22;720;47.738;7.998;2023-02-28T04:21:55;-0.60;92.50
1453;DHT22;720;47.738;7.998;2023-02-28T04:24:23;-0.60;92.20
1453;DHT22;720;47.738;7.998;2023-02-28T04:26:51;-0.90;92.30
1453;DHT22;720;47.738;7.998;2023-02-28T04:29:20;-1.30;93.00
1453;DHT22;720;47.738;7.998;2023-02-28T04:31:46;-1.30;93.50
1453;DHT22;720;47.738;7.998;2023-02-28T04:34:12;-1.10;94.00
1453;DHT22;720;47.738;7.998;2023-02-28T04:36:38;-1.00;94.10
1453;DHT22;720;47.738;7.998;2023-02-28T04:39:04;-1.00;93.80
1453;DHT22;720;47.738;7.998;2023-02-28T04:41:30;-1.00;93.40
1453;DHT22;720;47.738;7.998;2023-02-28T04:43:55;-1.00;93.40
1453;DHT22;720;47.738;7.998;2023-02-28T04:46:21;-1.10;93.00
1453;DHT22;720;47.738;7.998;2023-02-28T04:48:47;-1.40;93.30
1453;DHT22;720;47.738;7.998;2023-02-28T04:51:15;-1.50;94.00
1453;DHT22;720;47.738;7.998;2023-02-28T04:53:41;-1.50;94.40
1453;DHT22;720;47.738;7.998;2023-02-28T04:56:09;-1.30;94.90
1453;DHT22;720;47.738;7.998;2023-02-28T04:58:35;-1.10;93.90
1453;DHT22;720;47.738;7.998;2023-02-28T05:01:03;-1.20;93.90
1453;DHT22;720;47.738;7.998;2023-02-28T05:03:29;-1.40;93.90
1453;DHT22;720;47.738;7.998;2023-02-28T05:05:54;-1.40;93.70
1453;DHT22;720;47.738;7.998;2023-02-28T05:08:20;-1.40;94.00
1453;DHT22;720;47.738;7.998;2023-02-28T05:10:46;-1.30;94.40
1453;DHT22;720;47.738;7.998;2023-02-28T05:13:12;-1.20;94.10
1453;DHT22;720;47.738;7.998;2023-02-28T05:15:38;-1.00;94.30
1453;DHT22;720;47.738;7.998;2023-02-28T05:18:03;-1.10;94.20
1453;DHT22;720;47.738;7.998;2023-02-28T05:20:29;-1.20;94.60
1453;DHT22;720;47.738;7.998;2023-02-28T05:22:55;-1.20;94.70
1453;DHT22;720;47.738;7.998;2023-02-28T05:25:22;-1.30;95.10
1453;DHT22;720;47.738;7.998;2023-02-28T05:27:48;-1.20;95.10
1453;DHT22;720;47.738;7.998;2023-02-28T05:30:14;-1.40;94.00
1453;DHT22;720;47.738;7.998;2023-02-28T05:32:41;-1.70;95.10
1453;DHT22;720;47.738;7.998;2023-02-28T05:35:11;-1.50;95.60
1453;DHT22;720;47.738;7.998;2023-02-28T05:37:38;-1.30;95.40
1453;DHT22;720;47.738;7.998;2023-02-28T05:40:05;-1.10;95.10
1453;DHT22;720;47.738;7.998;2023-02-28T05:42:37;-1.20;93.90
1453;DHT22;720;47.738;7.998;2023-02-28T05:45:04;-1.40;93.70
1453;DHT22;720;47.738;7.998;2023-02-28T05:47:30;-1.30;93.80
1453;DHT22;720;47.738;7.998;2023-02-28T05:49:56;-1.20;93.70
1453;DHT22;720;47.738;7.998;2023-02-28T05:52:21;-1.30;93.60
1453;DHT22;720;47.738;7.998;2023-02-28T05:54:47;-1.20;93.90
1453;DHT22;720;47.738;7.998;2023-02-28T05:57:13;-1.20;93.50
1453;DHT22;720;47.738;7.998;2023-02-28T05:59:38;-1.30;93.20
1453;DHT22;720;47.738;7.998;2023-02-28T06:02:05;-1.40;93.80
1453;DHT22;720;47.738;7.998;2023-02-28T06:04:31;-1.40;94.00
1453;DHT22;720;47.738;7.998;2023-02-28T06:06:57;-1.50;93.80
1453;DHT22;720;47.738;7.998;2023-02-28T06:09:22;-1.50;94.10
1453;DHT22;720;47.738;7.998;2023-02-28T06:11:48;-1.50;94.20
1453;DHT22;720;47.738;7.998;2023-02-28T06:14:16;-1.50;94.10
1453;DHT22;720;47.738;7.998;2023-02-28T06:16:42;-1.40;94.30
1453;DHT22;720;47.738;7.998;2023-02-28T06:19:09;-1.40;94.00
1453;DHT22;720;47.738;7.998;2023-02-28T06:21:35;-1.40;93.70
1453;DHT22;720;47.738;7.998;2023-02-28T06:24:02;-1.40;93.60
1453;DHT22;720;47.738;7.998;2023-02-28T06:26:28;-1.30;93.80
1453;DHT22;720;47.738;7.998;2023-02-28T06:28:54;-1.30;93.60
1453;DHT22;720;47.738;7.998;2023-02-28T06:31:20;-1.20;93.70
1453;DHT22;720;47.738;7.998;2023-02-28T06:33:46;-1.20;93.60
1453;DHT22;720;47.738;7.998;2023-02-28T06:36:14;-1.00;93.70
1453;DHT22;720;47.738;7.998;2023-02-28T06:38:40;-1.00;93.40
1453;DHT22;720;47.738;7.998;2023-02-28T06:41:06;-1.00;93.10
1453;DHT22;720;47.738;7.998;2023-02-28T06:43:35;-1.00;93.10
1453;DHT22;720;47.738;7.998;2023-02-28T06:46:02;-1.10;93.30
1453;DHT22;720;47.738;7.998;2023-02-28T06:48:28;-1.30;93.30
1453;DHT22;720;47.738;7.998;2023-02-28T06:51:07;-1.30;93.60
1453;DHT22;720;47.738;7.998;2023-02-28T06:53:33;-1.20;93.70
1453;DHT22;720;47.738;7.998;2023-02-28T06:55:59;-1.10;93.40
1453;DHT22;720;47.738;7.998;2023-02-28T06:58:25;-1.20;93.10
1453;DHT22;720;47.738;7.998;2023-02-28T07:00:52;-1.20;93.40
1453;DHT22;720;47.738;7.998;2023-02-28T07:03:18;-1.30;93.50
1453;DHT22;720;47.738;7.998;2023-02-28T07:05:44;-1.30;93.80
1453;DHT22;720;47.738;7.998;2023-02-28T07:08:10;-1.30;93.80
1453;DHT22;720;47.738;7.998;2023-02-28T07:10:38;-1.30;93.80
1453;DHT22;720;47.738;7.998;2023-02-28T07:13:05;-1.20;94.10
1453;DHT22;720;47.738;7.998;2023-02-28T07:15:31;-1.10;93.70
1453;DHT22;720;47.738;7.998;2023-02-28T07:17:57;-1.10;93.60
1453;DHT22;720;47.738;7.998;2023-02-28T07:20:23;-1.20;93.90
1453;DHT22;720;47.738;7.998;2023-02-28T07:22:50;-1.20;93.60
1453;DHT22;720;47.738;7.998;2023-02-28T07:25:26;-1.40;93.80
1453;DHT22;720;47.738;7.998;2023-02-28T07:27:52;-1.50;94.00
1453;DHT22;720;47.738;7.998;2023-02-28T07:30:18;-1.40;94.20
1453;DHT22;720;47.738;7.998;2023-02-28T07:32:43;-1.50;94.10
1453;DHT22;720;47.738;7.998;2023-02-28T07:35:09;-1.50;94.50
1453;DHT22;720;47.738;7.998;2023-02-28T07:37:35;-1.80;94.80
1453;DHT22;720;47.738;7.998;2023-02-28T07:40:05;-1.70;95.50
1453;DHT22;720;47.738;7.998;2023-02-28T07:42:34;-1.40;95.40
1453;DHT22;720;47.738;7.998;2023-02-28T07:45:00;-1.30;95.00
1453;DHT22;720;47.738;7.998;2023-02-28T07:47:26;-1.10;94.80
1453;DHT22;720;47.738;7.998;2023-02-28T07:49:51;-1.10;94.20
1453;DHT22;720;47.738;7.998;2023-02-28T07:52:17;-0.90;94.60
1453;DHT22;720;47.738;7.998;2023-02-28T07:54:43;-0.80;94.10
1453;DHT22;720;47.738;7.998;2023-02-28T07:57:09;-0.70;93.70
1453;DHT22;720;47.738;7.998;2023-02-28T07:59:34;-0.60;93.30
1453;DHT22;720;47.738;7.998;2023-02-28T08:02:00;-0.70;93.20
1453;DHT22;720;47.738;7.998;2023-02-28T08:04:26;-0.90;93.10
1453;DHT22;720;47.738;7.998;2023-02-28T08:06:51;-1.00;93.30
1453;DHT22;720;47.738;7.998;2023-02-28T08:09:19;-1.00;93.60
1453;DHT22;720;47.738;7.998;2023-02-28T08:11:44;-1.20;94.20
1453;DHT22;720;47.738;7.998;2023-02-28T08:14:10;-1.20;94.70
1453;DHT22;720;47.738;7.998;2023-02-28T08:16:36;-1.00;93.80
1453;DHT22;720;47.738;7.998;2023-02-28T08:19:02;-0.90;93.40
1453;DHT22;720;47.738;7.998;2023-02-28T08:21:27;-0.80;93.10
1453;DHT22;720;47.738;7.998;2023-02-28T08:23:53;-0.80;93.30
1453;DHT22;720;47.738;7.998;2023-02-28T08:26:19;-0.70;93.60
1453;DHT22;720;47.738;7.998;2023-02-28T08:28:45;-0.70;93.70
1453;DHT22;720;47.738;7.998;2023-02-28T08:31:13;-0.50;93.70
1453;DHT22;720;47.738;7.998;2023-02-28T08:33:40;-0.30;93.30
1453;DHT22;720;47.738;7.998;2023-02-28T08:36:08;-0.30;92.70
1453;DHT22;720;47.738;7.998;2023-02-28T08:38:35;-0.20;92.40
1453;DHT22;720;47.738;7.998;2023-02-28T08:41:03;-0.20;92.20
1453;DHT22;720;47.738;7.998;2023-02-28T08:43:29;-0.20;92.40
1453;DHT22;720;47.738;7.998;2023-02-28T08:45:55;0.00;92.60
1453;DHT22;720;47.738;7.998;2023-02-28T08:48:25;0.10;92.20
1453;DHT22;720;47.738;7.998;2023-02-28T08:53:22;0.10;91.60
1453;DHT22;720;47.738;7.998;2023-02-28T08:55:59;0.10;91.70
1453;DHT22;720;47.738;7.998;2023-02-28T08:58:25;-0.10;91.90
1453;DHT22;720;47.738;7.998;2023-02-28T09:00:51;-0.10;91.70
1453;DHT22;720;47.738;7.998;2023-02-28T09:03:17;-0.40;91.90
1453;DHT22;720;47.738;7.998;2023-02-28T09:05:55;-0.30;92.60
1453;DHT22;720;47.738;7.998;2023-02-28T09:08:21;-0.20;92.40
1453;DHT22;720;47.738;7.998;2023-02-28T09:10:47;-0.20;92.00
1453;DHT22;720;47.738;7.998;2023-02-28T09:13:13;0.00;92.10
1453;DHT22;720;47.738;7.998;2023-02-28T09:15:39;-0.20;91.70
1453;DHT22;720;47.738;7.998;2023-02-28T09:18:04;-0.80;92.30
1453;DHT22;720;47.738;7.998;2023-02-28T09:20:30;-0.80;93.40
1453;DHT22;720;47.738;7.998;2023-02-28T09:22:56;-0.50;93.50
1453;DHT22;720;47.738;7.998;2023-02-28T09:25:21;-0.30;93.00
1453;DHT22;720;47.738;7.998;2023-02-28T09:27:47;0.00;92.70
1453;DHT22;720;47.738;7.998;2023-02-28T09:30:13;0.00;92.20
1453;DHT22;720;47.738;7.998;2023-02-28T09:32:39;0.00;92.10
1453;DHT22;720;47.738;7.998;2023-02-28T09:35:05;0.10;91.80
1453;DHT22;720;47.738;7.998;2023-02-28T09:37:31;0.20;91.40
1453;DHT22;720;47.738;7.998;2023-02-28T09:39:57;0.30;90.90
1453;DHT22;720;47.738;7.998;2023-02-28T09:42:32;0.40;91.20
1453;DHT22;720;47.738;7.998;2023-02-28T09:45:00;0.10;90.90
1453;DHT22;720;47.738;7.998;2023-02-28T09:47:34;-0.10;91.30
1453;DHT22;720;47.738;7.998;2023-02-28T09:52:59;0.30;91.40
1453;DHT22;720;47.738;7.998;2023-02-28T09:55:42;0.30;90.90
1453;DHT22;720;47.738;7.998;2023-02-28T09:58:32;0.40;90.90
1453;DHT22;720;47.738;7.998;2023-02-28T10:03:51;1.00;91.00
1453;DHT22;720;47.738;7.998;2023-02-28T10:06:26;1.40;90.00
1453;DHT22;720;47.738;7.998;2023-02-28T10:09:14;1.50;89.30
1453;DHT22;720;47.738;7.998;2023-02-28T10:11:41;1.50;89.50
1453;DHT22;720;47.738;7.998;2023-02-28T10:14:18;1.50;88.90
1453;DHT22;720;47.738;7.998;2023-02-28T10:16:45;1.50;88.60
1453;DHT22;720;47.738;7.998;2023-02-28T10:24:51;1.60;89.60
1453;DHT22;720;47.738;7.998;2023-02-28T10:27:22;1.90;89.50
1453;DHT22;720;47.738;7.998;2023-02-28T10:29:56;2.10;87.00
1453;DHT22;720;47.738;7.998;2023-02-28T10:32:23;2.20;86.50
1453;DHT22;720;47.738;7.998;2023-02-28T10:37:40;2.20;84.10
1453;DHT22;720;47.738;7.998;2023-02-28T10:42:58;1.80;84.90
1453;DHT22;720;47.738;7.998;2023-02-28T10:45:25;1.70;85.70
1453;DHT22;720;47.738;7.998;2023-02-28T10:47:56;1.60;85.30
1453;DHT22;720;47.738;7.998;2023-02-28T10:50:39;1.40;86.60
1453;DHT22;720;47.738;7.998;2023-02-28T10:55:36;1.90;87.30
1453;DHT22;720;47.738;7.998;2023-02-28T10:58:02;2.00;85.00
1453;DHT22;720;47.738;7.998;2023-02-28T11:00:34;2.00;84.30
1453;DHT22;720;47.738;7.998;2023-02-28T11:03:00;1.70;84.90
1453;DHT22;720;47.738;7.998;2023-02-28T11:07:57;1.70;86.40
1453;DHT22;720;47.738;7.998;2023-02-28T11:10:28;1.90;86.90
1453;DHT22;720;47.738;7.998;2023-02-28T11:12:56;1.90;85.50
1453;DHT22;720;47.738;7.998;2023-02-28T11:15:27;2.10;86.20
1453;DHT22;720;47.738;7.998;2023-02-28T11:18:00;2.10;85.40
1453;DHT22;720;47.738;7.998;2023-02-28T11:20:28;2.00;85.30
1453;DHT22;720;47.738;7.998;2023-02-28T11:22:56;2.00;86.20
1453;DHT22;720;47.738;7.998;2023-02-28T11:25:23;2.20;85.40
1453;DHT22;720;47.738;7.998;2023-02-28T11:27:52;2.20;84.10
1453;DHT22;720;47.738;7.998;2023-02-28T11:33:00;2.50;84.10
1453;DHT22;720;47.738;7.998;2023-02-28T11:35:35;2.40;83.90
1453;DHT22;720;47.738;7.998;2023-02-28T11:38:01;2.40;84.00
1453;DHT22;720;47.738;7.998;2023-02-28T11:40:48;2.60;84.70
1453;DHT22;720;47.738;7.998;2023-02-28T11:49:01;2.60;84.20
1453;DHT22;720;47.738;7.998;2023-02-28T11:51:35;3.10;99.90
1453;DHT22;720;47.738;7.998;2023-02-28T11:54:23;2.80;87.90
1453;DHT22;720;47.738;7.998;2023-02-28T11:56:58;2.90;89.80
1453;DHT22;720;47.738;7.998;2023-02-28T12:00:30;2.60;86.10
1453;DHT22;720;47.738;7.998;2023-02-28T12:05:10;2.50;85.90
1453;DHT22;720;47.738;7.998;2023-02-28T12:07:49;2.80;85.80
1453;DHT22;720;47.738;7.998;2023-02-28T12:10:35;3.10;84.50
1453;DHT22;720;47.738;7.998;2023-02-28T12:13:12;3.30;82.40
1453;DHT22;720;47.738;7.998;2023-02-28T12:18:51;3.30;81.30
1453;DHT22;720;47.738;7.998;2023-02-28T12:27:12;3.10;80.00
1453;DHT22;720;47.738;7.998;2023-02-28T12:29:58;3.00;80.50
1453;DHT22;720;47.738;7.998;2023-02-28T12:32:40;3.00;81.20
1453;DHT22;720;47.738;7.998;2023-02-28T12:35:13;3.10;80.30
1453;DHT22;720;47.738;7.998;2023-02-28T12:37:58;2.90;80.20
1453;DHT22;720;47.738;7.998;2023-02-28T12:43:12;3.00;81.60
1453;DHT22;720;47.738;7.998;2023-02-28T12:45:46;3.30;81.00
1453;DHT22;720;47.738;7.998;2023-02-28T12:48:33;3.50;80.40
1453;DHT22;720;47.738;7.998;2023-02-28T12:51:03;3.80;80.60
1453;DHT22;720;47.738;7.998;2023-02-28T12:59:14;3.80;77.30
1453;DHT22;720;47.738;7.998;2023-02-28T13:09:58;3.20;82.40
1453;DHT22;720;47.738;7.998;2023-02-28T13:15:05;4.40;92.80
1453;DHT22;720;47.738;7.998;2023-02-28T13:17:39;4.50;99.90
1453;DHT22;720;47.738;7.998;2023-02-28T13:20:21;6.40;96.80
1453;DHT22;720;47.738;7.998;2023-02-28T13:22:53;4.40;77.40
1453;DHT22;720;47.738;7.998;2023-02-28T13:27:55;4.10;77.90
1453;DHT22;720;47.738;7.998;2023-02-28T13:33:29;4.20;78.50
1453;DHT22;720;47.738;7.998;2023-02-28T13:38:56;4.30;78.50
1453;DHT22;720;47.738;7.998;2023-02-28T13:46:30;4.50;75.90
1453;DHT22;720;47.738;7.998;2023-02-28T13:48:56;4.30;77.10
1453;DHT22;720;47.738;7.998;2023-02-28T13:51:49;4.10;76.50
1453;DHT22;720;47.738;7.998;2023-02-28T13:57:26;2.80;79.70
1453;DHT22;720;47.738;7.998;2023-02-28T14:00:02;2.70;81.10
1453;DHT22;720;47.738;7.998;2023-02-28T14:02:48;1.90;84.50
1453;DHT22;720;47.738;7.998;2023-02-28T14:05:19;2.10;84.70
1453;DHT22;720;47.738;7.998;2023-02-28T14:07:53;2.50;83.70
1453;DHT22;720;47.738;7.998;2023-02-28T14:10:32;2.90;83.00
1453;DHT22;720;47.738;7.998;2023-02-28T14:18:28;3.00;82.70
1453;DHT22;720;47.738;7.998;2023-02-28T14:21:05;3.40;83.70
1453;DHT22;720;47.738;7.998;2023-02-28T14:23:46;3.70;82.10
1453;DHT22;720;47.738;7.998;2023-02-28T14:26:26;3.90;79.60
1453;DHT22;720;47.738;7.998;2023-02-28T14:32:02;3.80;79.70
1453;DHT22;720;47.738;7.998;2023-02-28T14:37:03;3.70;79.70
1453;DHT22;720;47.738;7.998;2023-02-28T14:39:31;3.70;79.30
1453;DHT22;720;47.738;7.998;2023-02-28T14:41:58;3.50;79.30
1453;DHT22;720;47.738;7.998;2023-02-28T14:44:30;3.40;80.60
1453;DHT22;720;47.738;7.998;2023-02-28T14:46:59;3.50;81.30
1453;DHT22;720;47.738;7.998;2023-02-28T14:49:36;3.60;80.70
1453;DHT22;720;47.738;7.998;2023-02-28T14:54:36;3.50;79.60
1453;DHT22;720;47.738;7.998;2023-02-28T14:57:02;3.20;79.10
1453;DHT22;720;47.738;7.998;2023-02-28T14:59:34;3.00;80.30
1453;DHT22;720;47.738;7.998;2023-02-28T15:04:42;2.80;82.30
1453;DHT22;720;47.738;7.998;2023-02-28T15:07:14;2.60;82.30
1453;DHT22;720;47.738;7.998;2023-02-28T15:09:40;2.60;83.10
1453;DHT22;720;47.738;7.998;2023-02-28T15:12:06;2.60;83.10
1453;DHT22;720;47.738;7.998;2023-02-28T15:14:32;2.60;83.90
1453;DHT22;720;47.738;7.998;2023-02-28T15:17:07;2.60;83.70
1453;DHT22;720;47.738;7.998;2023-02-28T15:19:36;2.70;82.40
1453;DHT22;720;47.738;7.998;2023-02-28T15:22:11;2.60;81.40
1453;DHT22;720;47.738;7.998;2023-02-28T15:24:43;2.20;82.40
1453;DHT22;720;47.738;7.998;2023-02-28T15:27:31;1.80;84.30
1453;DHT22;720;47.738;7.998;2023-02-28T15:30:05;1.60;85.20
1453;DHT22;720;47.738;7.998;2023-02-28T15:32:35;1.80;85.60
1453;DHT22;720;47.738;7.998;2023-02-28T15:38:25;1.50;85.40
1453;DHT22;720;47.738;7.998;2023-02-28T15:40:57;1.40;87.20
1453;DHT22;720;47.738;7.998;2023-02-28T15:43:34;1.70;87.20
1453;DHT22;720;47.738;7.998;2023-02-28T15:46:09;2.00;87.10
1453;DHT22;720;47.738;7.998;2023-02-28T15:48:55;2.20;86.10
1453;DHT22;720;47.738;7.998;2023-02-28T15:51:35;2.20;85.40
1453;DHT22;720;47.738;7.998;2023-02-28T15:54:05;2.20;85.40
1453;DHT22;720;47.738;7.998;2023-02-28T15:56:47;2.20;85.50
1453;DHT22;720;47.738;7.998;2023-02-28T15:59:20;2.20;85.50
1453;DHT22;720;47.738;7.998;2023-02-28T16:01:46;2.00;84.80
1453;DHT22;720;47.738;7.998;2023-02-28T16:04:18;1.70;85.20
1453;DHT22;720;47.738;7.998;2023-02-28T16:06:45;1.60;85.70
1453;DHT22;720;47.738;7.998;2023-02-28T16:09:16;1.60;86.40
1453;DHT22;720;47.738;7.998;2023-02-28T16:11:49;1.60;86.70
1453;DHT22;720;47.738;7.998;2023-02-28T16:14:21;1.60;85.70
1453;DHT22;720;47.738;7.998;2023-02-28T16:16:51;1.60;85.80
1453;DHT22;720;47.738;7.998;2023-02-28T16:19:17;1.60;86.60
1453;DHT22;720;47.738;7.998;2023-02-28T16:21:43;1.40;87.20
1453;DHT22;720;47.738;7.998;2023-02-28T16:24:09;1.40;87.40
1453;DHT22;720;47.738;7.998;2023-02-28T16:26:35;1.40;88.10
1453;DHT22;720;47.738;7.998;2023-02-28T16:29:03;1.40;87.40
1453;DHT22;720;47.738;7.998;2023-02-28T16:31:30;1.20;87.10
1453;DHT22;720;47.738;7.998;2023-02-28T16:33:56;1.10;87.70
1453;DHT22;720;47.738;7.998;2023-02-28T16:36:23;1.00;87.70
1453;DHT22;720;47.738;7.998;2023-02-28T16:38:54;0.80;87.50
1453;DHT22;720;47.738;7.998;2023-02-28T16:41:22;0.70;88.10
1453;DHT22;720;47.738;7.998;2023-02-28T16:43:52;0.70;88.50
1453;DHT22;720;47.738;7.998;2023-02-28T16:46:19;0.70;89.30
1453;DHT22;720;47.738;7.998;2023-02-28T16:48:46;0.70;89.70
1453;DHT22;720;47.738;7.998;2023-02-28T16:51:15;0.50;89.50
1453;DHT22;720;47.738;7.998;2023-02-28T16:53:41;0.40;90.00
1453;DHT22;720;47.738;7.998;2023-02-28T16:56:16;0.30;90.50
1453;DHT22;720;47.738;7.998;2023-02-28T16:58:42;0.20;90.90
1453;DHT22;720;47.738;7.998;2023-02-28T17:01:08;0.00;90.90
1453;DHT22;720;47.738;7.998;2023-02-28T17:03:33;0.20;91.40
1453;DHT22;720;47.738;7.998;2023-02-28T17:06:02;0.20;91.10
1453;DHT22;720;47.738;7.998;2023-02-28T17:08:28;0.10;91.10
1453;DHT22;720;47.738;7.998;2023-02-28T17:10:57;0.20;91.50
1453;DHT22;720;47.738;7.998;2023-02-28T17:13:23;0.10;91.80
1453;DHT22;720;47.738;7.998;2023-02-28T17:15:49;0.10;92.00
1453;DHT22;720;47.738;7.998;2023-02-28T17:18:17;0.00;91.80
1453;DHT22;720;47.738;7.998;2023-02-28T17:20:44;0.00;91.90
1453;DHT22;720;47.738;7.998;2023-02-28T17:23:10;0.10;92.00
1453;DHT22;720;47.738;7.998;2023-02-28T17:25:36;-0.20;91.80
1453;DHT22;720;47.738;7.998;2023-02-28T17:28:02;-0.20;92.10
1453;DHT22;720;47.738;7.998;2023-02-28T17:30:28;-0.10;92.30
1453;DHT22;720;47.738;7.998;2023-02-28T17:32:55;-0.10;92.00
1453;DHT22;720;47.738;7.998;2023-02-28T17:35:21;0.00;92.20
1453;DHT22;720;47.738;7.998;2023-02-28T17:37:46;0.00;92.10
1453;DHT22;720;47.738;7.998;2023-02-28T17:40:18;0.10;92.30
1453;DHT22;720;47.738;7.998;2023-02-28T17:42:45;0.00;92.20
1453;DHT22;720;47.738;7.998;2023-02-28T17:45:11;0.00;92.10
1453;DHT22;720;47.738;7.998;2023-02-28T17:47:38;-0.10;92.20
1453;DHT22;720;47.738;7.998;2023-02-28T17:50:05;0.00;92.10
1453;DHT22;720;47.738;7.998;2023-02-28T17:52:30;0.10;92.20
1453;DHT22;720;47.738;7.998;2023-02-28T17:55:02;0.00;92.40
1453;DHT22;720;47.738;7.998;2023-02-28T17:57:28;-0.20;92.80
1453;DHT22;720;47.738;7.998;2023-02-28T17:59:53;-0.10;92.80
1453;DHT22;720;47.738;7.998;2023-02-28T18:02:19;-0.10;93.00
1453;DHT22;720;47.738;7.998;2023-02-28T18:04:45;-0.20;92.70
1453;DHT22;720;47.738;7.998;2023-02-28T18:07:11;-0.20;93.20
1453;DHT22;720;47.738;7.998;2023-02-28T18:09:37;-0.30;93.30
1453;DHT22;720;47.738;7.998;2023-02-28T18:12:03;-0.20;93.70
1453;DHT22;720;47.738;7.998;2023-02-28T18:14:28;-0.10;93.20
1453;DHT22;720;47.738;7.998;2023-02-28T18:16:54;-0.10;93.70
1453;DHT22;720;47.738;7.998;2023-02-28T18:19:20;-0.20;93.70
1453;DHT22;720;47.738;7.998;2023-02-28T18:21:48;-0.20;93.90
1453;DHT22;720;47.738;7.998;2023-02-28T18:24:15;0.00;94.00
1453;DHT22;720;47.738;7.998;2023-02-28T18:26:41;0.20;93.80
1453;DHT22;720;47.738;7.998;2023-02-28T18:29:07;0.10;93.10
1453;DHT22;720;47.738;7.998;2023-02-28T18:31:34;0.10;93.30
1453;DHT22;720;47.738;7.998;2023-02-28T18:34:00;0.00;93.20
1453;DHT22;720;47.738;7.998;2023-02-28T18:36:26;0.10;93.40
1453;DHT22;720;47.738;7.998;2023-02-28T18:38:53;0.20;93.30